Time;durP1;ratioP1;P1;durP2;ratioP2;P2;SDS_P1;SDS_P2;PMS_P1;PMS_P2;Temp;Humidity;BMP_temperature;BMP_pressure;BME280_temperature;BME280_humidity;BME280_pressure;Samples;Min_cycle;Max_cycle;Signal;HPM_P1;HPM_P2
2023/09/12 00:00:30;;;;;;;16.13;8.03;;;18.00;99.90;;;;;;496688;238;28867;-75
2023/09/12 00:02:31;;;;;;;10.80;7.50;;;18.00;99.90;;;;;;496670;238;29701;-75
2023/09/12 00:04:33;;;;;;;10.10;7.73;;;18.00;99.90;;;;;;496682;238;29245;-75
2023/09/12 00:06:35;;;;;;;8.70;7.83;;;18.00;99.90;;;;;;496628;238;29269;-75
2023/09/12 00:08:36;;;;;;;9.70;7.73;;;18.00;99.90;;;;;;496695;238;29244;-76
2023/09/12 00:10:43;;;;;;;13.20;9.20;;;17.90;99.90;;;;;;496691;238;29297;-72
2023/09/12 00:12:45;;;;;;;9.53;8.13;;;17.90;99.90;;;;;;496696;238;28777;-74
2023/09/12 00:14:49;;;;;;;13.70;7.80;;;17.90;99.90;;;;;;496680;238;29277;-75
2023/09/12 00:16:52;;;;;;;10.70;8.13;;;17.90;99.90;;;;;;496696;238;28780;-75
2023/09/12 00:18:52;;;;;;;11.27;7.40;;;17.90;99.90;;;;;;496646;238;29292;-74
2023/09/12 00:20:56;;;;;;;11.17;9.20;;;17.90;99.90;;;;;;496630;238;29195;-75
2023/09/12 00:22:57;;;;;;;11.10;7.83;;;17.80;99.90;;;;;;496668;238;28912;-76
2023/09/12 00:25:05;;;;;;;12.30;8.30;;;17.80;99.90;;;;;;496675;238;29243;-75
2023/09/12 00:27:07;;;;;;;13.80;8.20;;;17.60;99.90;;;;;;496669;238;28807;-76
2023/09/12 00:29:13;;;;;;;8.47;7.67;;;17.50;99.90;;;;;;496660;238;29259;-73
2023/09/12 00:31:15;;;;;;;11.73;8.77;;;17.50;99.90;;;;;;496680;238;28877;-72
2023/09/12 00:33:19;;;;;;;9.63;8.50;;;17.50;99.90;;;;;;496607;238;29375;-75
2023/09/12 00:35:20;;;;;;;13.47;9.43;;;17.40;99.90;;;;;;496657;238;28817;-76
2023/09/12 00:37:23;;;;;;;9.87;8.43;;;17.40;99.90;;;;;;496634;238;29635;-76
2023/09/12 00:39:25;;;;;;;9.03;7.57;;;17.30;99.90;;;;;;496713;238;28802;-74
2023/09/12 00:41:33;;;;;;;12.17;8.40;;;17.30;99.90;;;;;;496701;238;29231;-75
2023/09/12 00:43:34;;;;;;;10.30;8.23;;;17.30;99.90;;;;;;496714;238;28797;-75
2023/09/12 00:45:38;;;;;;;8.30;7.47;;;17.30;99.90;;;;;;496668;238;28868;-76
2023/09/12 00:47:40;;;;;;;12.60;9.20;;;17.30;99.90;;;;;;496733;238;28890;-76
2023/09/12 00:49:47;;;;;;;14.10;8.03;;;17.40;99.90;;;;;;496690;238;29222;-75
2023/09/12 00:51:49;;;;;;;12.73;8.77;;;17.40;99.90;;;;;;496666;233;28824;-74
2023/09/12 00:54:05;;;;;;;11.47;8.73;;;17.50;99.90;;;;;;496700;238;29289;-75
2023/09/12 00:56:07;;;;;;;9.67;8.37;;;17.50;99.90;;;;;;496632;238;28914;-75
2023/09/12 00:58:11;;;;;;;18.60;9.20;;;17.60;99.90;;;;;;496631;238;29181;-75
2023/09/12 01:00:12;;;;;;;14.30;8.20;;;17.60;99.90;;;;;;496685;238;28856;-74
2023/09/12 01:02:22;;;;;;;12.77;7.97;;;17.60;99.90;;;;;;496663;238;29274;-75
2023/09/12 01:04:24;;;;;;;10.87;8.30;;;17.50;99.90;;;;;;496660;238;28767;-74
2023/09/12 01:06:31;;;;;;;10.67;7.60;;;17.60;99.90;;;;;;496700;238;29214;-75
2023/09/12 01:08:33;;;;;;;9.93;6.90;;;17.60;99.90;;;;;;496469;238;28817;-74
2023/09/12 01:10:34;;;;;;;18.00;8.17;;;17.60;99.90;;;;;;496674;238;28803;-74
2023/09/12 01:12:35;;;;;;;8.37;6.90;;;17.70;99.90;;;;;;496683;238;29202;-74
2023/09/12 01:14:38;;;;;;;15.20;9.03;;;17.60;99.90;;;;;;496668;238;29374;-74
2023/09/12 01:16:40;;;;;;;9.47;8.10;;;17.70;99.90;;;;;;496660;238;28851;-75
2023/09/12 01:18:42;;;;;;;10.00;7.97;;;17.60;99.90;;;;;;496629;238;29277;-77
2023/09/12 01:20:43;;;;;;;12.47;8.30;;;17.60;99.90;;;;;;496665;238;28814;-74
2023/09/12 01:22:44;;;;;;;11.10;8.10;;;17.60;99.90;;;;;;496694;238;29374;-74
2023/09/12 01:24:49;;;;;;;12.90;8.43;;;17.50;99.90;;;;;;496657;238;29236;-73
2023/09/12 01:26:50;;;;;;;9.60;8.13;;;17.30;99.90;;;;;;496659;238;28856;-75
2023/09/12 01:28:57;;;;;;;14.80;9.33;;;17.10;99.90;;;;;;496681;238;28816;-76
2023/09/12 01:30:58;;;;;;;15.37;9.30;;;16.90;99.90;;;;;;496698;238;28829;-75
2023/09/12 01:33:06;;;;;;;10.87;8.83;;;16.90;99.90;;;;;;496705;238;29413;-75
2023/09/12 01:35:08;;;;;;;12.83;9.23;;;16.80;99.90;;;;;;496691;238;28818;-74
2023/09/12 01:37:08;;;;;;;12.10;8.43;;;16.90;99.90;;;;;;496670;238;29224;-76
2023/09/12 01:39:09;;;;;;;11.80;9.53;;;17.00;99.90;;;;;;496710;238;29248;-75
2023/09/12 01:41:16;;;;;;;8.93;8.00;;;17.00;99.90;;;;;;496709;238;29339;-75
2023/09/12 01:43:18;;;;;;;16.70;8.53;;;17.10;99.90;;;;;;496713;238;28773;-74
2023/09/12 01:45:19;;;;;;;10.43;9.10;;;17.10;99.90;;;;;;496712;238;29237;-75
2023/09/12 01:47:29;;;;;;;14.83;9.73;;;17.20;99.90;;;;;;496694;238;29266;-76
2023/09/12 01:49:30;;;;;;;9.87;7.93;;;17.20;99.90;;;;;;496688;238;28777;-75
2023/09/12 01:51:37;;;;;;;11.23;8.37;;;17.30;99.90;;;;;;496725;238;28813;-72
2023/09/12 01:53:39;;;;;;;8.80;7.90;;;17.40;99.90;;;;;;496739;238;29260;-75
2023/09/12 01:55:46;;;;;;;9.07;8.10;;;17.40;99.90;;;;;;496704;238;29227;-75
2023/09/12 01:57:47;;;;;;;12.30;8.73;;;17.30;99.90;;;;;;496705;238;28894;-74
2023/09/12 01:59:48;;;;;;;11.83;7.80;;;17.30;99.90;;;;;;496704;238;29290;-73
2023/09/12 02:01:50;;;;;;;11.13;8.53;;;17.30;99.90;;;;;;496728;238;29340;-75
2023/09/12 02:03:57;;;;;;;11.87;8.53;;;17.40;99.90;;;;;;496717;238;29371;-75
2023/09/12 02:05:58;;;;;;;13.20;9.00;;;17.40;99.90;;;;;;496724;238;28777;-75
2023/09/12 02:08:09;;;;;;;11.10;8.10;;;17.50;99.90;;;;;;496667;238;29282;-75
2023/09/12 02:10:10;;;;;;;13.53;9.07;;;17.50;99.90;;;;;;496710;238;28816;-74
2023/09/12 02:12:17;;;;;;;9.00;7.80;;;17.60;99.90;;;;;;496719;238;29255;-74
2023/09/12 02:14:18;;;;;;;15.27;8.50;;;17.60;99.90;;;;;;496710;238;28852;-75
2023/09/12 02:16:25;;;;;;;10.93;8.40;;;17.60;99.90;;;;;;496693;238;29323;-76
2023/09/12 02:18:27;;;;;;;10.30;8.60;;;17.60;99.90;;;;;;496672;238;28804;-75
2023/09/12 02:20:29;;;;;;;9.80;8.20;;;17.50;99.90;;;;;;496647;238;29276;-75
2023/09/12 02:22:30;;;;;;;11.40;7.80;;;17.60;99.90;;;;;;496705;238;28800;-75
2023/09/12 02:24:31;;;;;;;11.17;8.63;;;17.60;99.90;;;;;;496697;238;29230;-76
2023/09/12 02:26:36;;;;;;;9.20;8.20;;;17.60;99.90;;;;;;496633;238;29306;-74
2023/09/12 02:28:37;;;;;;;15.97;8.87;;;17.60;99.90;;;;;;496645;238;28874;-75
2023/09/12 02:30:41;;;;;;;16.20;8.90;;;17.60;99.90;;;;;;496693;238;29246;-76
2023/09/12 02:32:43;;;;;;;8.67;7.37;;;17.60;99.90;;;;;;496709;238;28788;-75
2023/09/12 02:34:44;;;;;;;9.47;8.50;;;17.60;99.90;;;;;;496649;238;29269;-75
2023/09/12 02:36:45;;;;;;;8.87;7.97;;;17.60;99.90;;;;;;496684;238;29223;-74
2023/09/12 02:40:50;;;;;;;12.63;7.50;;;17.60;99.90;;;;;;496711;238;29243;-75
2023/09/12 02:45:15;;;;;;;11.43;8.30;;;17.50;99.90;;;;;;496697;238;28848;-75
2023/09/12 02:47:16;;;;;;;10.47;8.10;;;17.50;99.90;;;;;;496662;238;28881;-76
2023/09/12 02:49:17;;;;;;;21.40;9.00;;;17.60;99.90;;;;;;496675;238;28904;-74
2023/09/12 02:51:27;;;;;;;9.07;8.17;;;17.60;99.90;;;;;;496684;238;29237;-75
2023/09/12 02:53:28;;;;;;;9.03;7.63;;;17.60;99.90;;;;;;496663;238;29312;-75
2023/09/12 02:55:38;;;;;;;9.33;8.07;;;17.60;99.90;;;;;;496632;238;29299;-75
2023/09/12 02:57:39;;;;;;;11.63;8.20;;;17.60;99.90;;;;;;496688;238;28805;-79
2023/09/12 02:59:44;;;;;;;11.57;7.90;;;17.60;99.90;;;;;;496694;239;29238;-75
2023/09/12 03:01:45;;;;;;;12.00;8.60;;;17.60;99.90;;;;;;496645;238;28775;-74
2023/09/12 03:03:47;;;;;;;11.13;8.00;;;17.60;99.90;;;;;;496633;238;29254;-75
2023/09/12 03:05:49;;;;;;;10.40;7.97;;;17.60;99.90;;;;;;496697;238;28792;-76
2023/09/12 03:09:58;;;;;;;11.30;8.20;;;17.50;99.90;;;;;;496676;238;29274;-74
2023/09/12 03:12:02;;;;;;;11.33;8.00;;;17.50;99.90;;;;;;496652;238;28793;-74
2023/09/12 03:14:04;;;;;;;8.60;7.70;;;17.60;99.90;;;;;;496682;238;28840;-80
2023/09/12 03:16:11;;;;;;;15.30;8.13;;;17.60;99.90;;;;;;496683;238;28767;-74
2023/09/12 03:18:12;;;;;;;10.87;7.90;;;17.60;99.90;;;;;;496674;238;28791;-75
2023/09/12 03:20:13;;;;;;;10.73;8.23;;;17.50;99.90;;;;;;496654;238;29546;-75
2023/09/12 03:22:21;;;;;;;13.27;8.67;;;17.50;99.90;;;;;;496644;238;29387;-75
2023/09/12 03:24:24;;;;;;;11.60;7.70;;;17.50;99.90;;;;;;496688;238;28824;-80
2023/09/12 03:26:29;;;;;;;9.07;8.27;;;17.60;99.90;;;;;;496548;238;29234;-74
2023/09/12 03:28:30;;;;;;;12.23;8.47;;;17.60;99.90;;;;;;496690;238;28836;-73
2023/09/12 03:30:37;;;;;;;10.33;8.40;;;17.60;99.90;;;;;;496668;238;29243;-74
2023/09/12 03:32:38;;;;;;;12.83;8.43;;;17.50;99.90;;;;;;496636;238;28927;-74
2023/09/12 03:34:40;;;;;;;11.70;8.00;;;17.60;99.90;;;;;;496626;238;29219;-75
2023/09/12 03:36:41;;;;;;;8.80;7.70;;;17.60;99.90;;;;;;496670;238;28785;-75
2023/09/12 03:38:48;;;;;;;10.53;7.37;;;17.60;99.90;;;;;;496659;238;29282;-76
2023/09/12 03:40:50;;;;;;;8.00;6.90;;;17.60;99.90;;;;;;496664;238;28790;-76
2023/09/12 03:42:52;;;;;;;13.03;8.03;;;17.60;99.90;;;;;;496647;238;28822;-76
2023/09/12 03:44:53;;;;;;;12.27;8.60;;;17.60;99.90;;;;;;496685;238;29228;-74
2023/09/12 03:47:00;;;;;;;14.17;8.00;;;17.60;99.90;;;;;;496675;238;29352;-74
2023/09/12 03:49:02;;;;;;;15.10;8.87;;;17.70;99.90;;;;;;496677;238;28818;-75
2023/09/12 03:51:04;;;;;;;12.67;8.27;;;17.70;99.90;;;;;;496649;238;29366;-73
2023/09/12 03:53:05;;;;;;;10.63;8.07;;;17.70;99.90;;;;;;496698;238;28822;-74
2023/09/12 03:57:11;;;;;;;10.03;7.50;;;17.70;99.90;;;;;;496654;238;28818;-74
2023/09/12 03:59:12;;;;;;;11.43;7.57;;;17.80;99.90;;;;;;496649;238;29226;-74
2023/09/12 04:01:13;;;;;;;11.03;8.37;;;17.80;99.90;;;;;;496693;238;28943;-75
2023/09/12 04:03:27;;;;;;;8.77;7.30;;;17.80;99.90;;;;;;496666;238;29300;-75
2023/09/12 04:05:28;;;;;;;8.73;7.93;;;17.80;99.90;;;;;;496659;238;28783;-74
2023/09/12 04:07:30;;;;;;;13.43;7.37;;;17.80;99.90;;;;;;496636;238;28886;-75
2023/09/12 04:09:31;;;;;;;10.47;8.60;;;17.70;99.90;;;;;;496689;238;28854;-75
2023/09/12 04:11:45;;;;;;;10.60;8.50;;;17.70;99.90;;;;;;496678;238;29320;-75
2023/09/12 04:13:46;;;;;;;13.37;8.70;;;17.50;99.90;;;;;;496653;238;29256;-75
2023/09/12 04:15:54;;;;;;;9.77;8.67;;;17.30;99.90;;;;;;496649;238;29360;-75
2023/09/12 04:17:56;;;;;;;9.87;7.90;;;17.30;99.90;;;;;;496685;238;28788;-76
2023/09/12 04:20:04;;;;;;;10.10;8.63;;;17.10;99.90;;;;;;496676;238;29262;-75
2023/09/12 04:22:04;;;;;;;10.17;8.00;;;17.10;99.90;;;;;;496690;238;29188;-74
2023/09/12 04:24:08;;;;;;;10.80;8.73;;;17.00;99.90;;;;;;496555;238;29251;-75
2023/09/12 04:26:10;;;;;;;9.10;8.20;;;17.00;99.90;;;;;;496715;238;28874;-75
2023/09/12 04:28:17;;;;;;;11.33;8.67;;;17.00;99.90;;;;;;496677;238;29247;-75
2023/09/12 04:30:18;;;;;;;10.10;8.30;;;17.00;99.90;;;;;;496649;238;28789;-75
2023/09/12 04:32:26;;;;;;;9.50;8.50;;;17.00;99.90;;;;;;496669;238;29260;-74
2023/09/12 04:34:27;;;;;;;14.23;8.30;;;17.00;99.90;;;;;;496690;238;28798;-77
2023/09/12 04:36:31;;;;;;;9.57;8.00;;;17.10;99.90;;;;;;496650;238;29235;-75
2023/09/12 04:38:33;;;;;;;16.17;9.90;;;17.00;99.90;;;;;;496626;238;28767;-75
2023/09/12 04:40:43;;;;;;;10.83;9.07;;;17.00;99.90;;;;;;496673;238;28791;-75
2023/09/12 04:42:44;;;;;;;12.77;8.90;;;17.00;99.90;;;;;;496693;238;28822;-75
2023/09/12 04:44:51;;;;;;;13.73;8.03;;;17.00;99.90;;;;;;496674;238;29288;-75
2023/09/12 04:46:53;;;;;;;12.30;8.10;;;17.00;99.90;;;;;;496665;238;28788;-75
2023/09/12 04:51:17;;;;;;;11.43;8.50;;;17.00;99.90;;;;;;496633;234;28773;-73
2023/09/12 04:53:18;;;;;;;10.03;8.03;;;16.90;99.90;;;;;;496580;238;28798;-73
2023/09/12 04:55:19;;;;;;;12.60;8.03;;;17.00;99.90;;;;;;496655;238;28811;-75
2023/09/12 04:57:30;;;;;;;9.87;7.53;;;17.00;99.90;;;;;;496618;238;29224;-74
2023/09/12 04:59:28;;;;;;;9.27;7.93;;;16.90;99.90;;;;;;496670;238;28877;-74
2023/09/12 05:01:29;;;;;;;10.83;8.50;;;16.90;99.90;;;;;;496652;238;28795;-73
2023/09/12 05:03:31;;;;;;;14.83;8.97;;;16.80;99.90;;;;;;496685;238;29397;-72
2023/09/12 05:05:32;;;;;;;14.97;9.40;;;16.80;99.90;;;;;;496682;238;28896;-74
2023/09/12 05:07:33;;;;;;;13.33;8.50;;;16.80;99.90;;;;;;496661;238;28758;-73
2023/09/12 05:09:53;;;;;;;11.20;7.93;;;16.90;99.90;;;;;;496688;238;29350;-76
2023/09/12 05:11:54;;;;;;;11.00;8.30;;;16.80;99.90;;;;;;496680;238;28877;-74
2023/09/12 05:13:55;;;;;;;9.83;8.53;;;16.90;99.90;;;;;;496666;238;29255;-76
2023/09/12 05:15:56;;;;;;;10.20;8.60;;;16.80;99.90;;;;;;496705;238;28764;-75
2023/09/12 05:18:03;;;;;;;10.83;9.20;;;16.80;99.90;;;;;;498661;236;29257;-73
2023/09/12 05:20:07;;;;;;;12.83;9.00;;;16.80;99.90;;;;;;503139;236;28851;-76
2023/09/12 05:22:13;;;;;;;11.83;8.57;;;16.80;99.90;;;;;;503175;236;28775;-73
2023/09/12 05:24:14;;;;;;;10.53;8.27;;;16.80;99.90;;;;;;503097;236;28818;-75
2023/09/12 05:26:17;;;;;;;11.47;8.37;;;16.80;99.90;;;;;;503106;236;29948;-75
2023/09/12 05:28:19;;;;;;;13.03;9.00;;;16.90;99.90;;;;;;503188;236;28875;-76
2023/09/12 05:30:26;;;;;;;10.53;7.33;;;16.90;99.90;;;;;;503127;236;29240;-76
2023/09/12 05:32:27;;;;;;;11.00;8.33;;;16.80;99.90;;;;;;503151;236;28787;-75
2023/09/12 05:34:34;;;;;;;8.73;7.50;;;16.80;99.90;;;;;;490773;242;29354;-75
2023/09/12 05:36:36;;;;;;;18.27;8.60;;;16.80;99.90;;;;;;490821;242;28752;-80
2023/09/12 05:38:48;;;;;;;10.90;8.40;;;16.70;99.90;;;;;;490766;242;29212;-76
2023/09/12 05:40:52;;;;;;;10.03;8.33;;;16.60;99.90;;;;;;490808;242;28744;-74
2023/09/12 05:43:08;;;;;;;14.10;8.00;;;16.60;99.90;;;;;;490778;242;28839;-73
2023/09/12 05:45:09;;;;;;;14.40;9.07;;;16.60;99.90;;;;;;490812;242;29193;-73
2023/09/12 05:47:20;;;;;;;11.37;9.87;;;16.60;99.90;;;;;;490808;242;29198;-73
2023/09/12 05:49:21;;;;;;;17.63;9.60;;;16.50;99.90;;;;;;490836;242;28744;-76
2023/09/12 05:51:27;;;;;;;15.20;10.30;;;16.50;99.90;;;;;;490697;242;29226;-73
2023/09/12 05:53:30;;;;;;;15.00;9.10;;;16.60;99.90;;;;;;480571;247;28880;-73
2023/09/12 05:55:34;;;;;;;12.43;9.90;;;16.60;99.90;;;;;;480444;247;28942;-75
2023/09/12 05:57:35;;;;;;;14.43;9.13;;;16.60;99.90;;;;;;480516;247;29753;-75
2023/09/12 05:59:36;;;;;;;15.90;9.97;;;16.60;99.90;;;;;;480538;247;28856;-74
2023/09/12 06:01:37;;;;;;;13.77;8.43;;;16.60;99.90;;;;;;480565;247;28908;-75
2023/09/12 06:03:39;;;;;;;11.60;9.40;;;16.70;99.90;;;;;;480578;247;28949;-75
2023/09/12 06:05:49;;;;;;;10.80;9.03;;;16.80;99.90;;;;;;480607;246;29418;-75
2023/09/12 06:07:50;;;;;;;11.23;8.80;;;16.90;99.90;;;;;;480602;247;28967;-75
2023/09/12 06:09:51;;;;;;;9.17;8.27;;;17.00;99.90;;;;;;480587;247;29280;-75
2023/09/12 06:11:54;;;;;;;13.43;9.70;;;17.10;99.90;;;;;;480576;247;29648;-74
2023/09/12 06:13:55;;;;;;;11.33;8.87;;;17.20;99.90;;;;;;480604;247;28987;-75
2023/09/12 06:18:01;;;;;;;10.80;8.50;;;17.50;99.90;;;;;;480510;247;28910;-75
2023/09/12 06:20:06;;;;;;;11.30;8.33;;;17.60;99.90;;;;;;480544;247;28850;-72
2023/09/12 06:22:06;;;;;;;16.90;8.63;;;17.60;99.90;;;;;;480455;247;28983;-75
2023/09/12 06:24:23;;;;;;;11.20;8.00;;;17.60;99.90;;;;;;480596;247;28920;-75
2023/09/12 06:26:24;;;;;;;9.23;8.30;;;17.70;99.90;;;;;;480492;247;28848;-76
2023/09/12 06:28:26;;;;;;;11.03;7.93;;;17.80;99.90;;;;;;480529;247;28834;-74
2023/09/12 06:30:26;;;;;;;11.53;8.60;;;17.80;99.90;;;;;;480592;247;28991;-76
2023/09/12 06:32:28;;;;;;;16.07;8.70;;;17.80;99.90;;;;;;480560;247;28951;-75
2023/09/12 06:34:29;;;;;;;10.80;7.67;;;17.90;99.90;;;;;;480545;247;28885;-73
2023/09/12 06:36:30;;;;;;;11.70;8.37;;;18.00;99.90;;;;;;480580;247;29336;-75
2023/09/12 06:38:32;;;;;;;13.20;8.20;;;18.00;99.90;;;;;;480526;247;29329;-75
2023/09/12 06:40:39;;;;;;;9.00;7.67;;;18.10;99.90;;;;;;480545;247;29465;-75
2023/09/12 06:42:40;;;;;;;14.80;8.30;;;18.10;99.90;;;;;;480505;247;28913;-74
2023/09/12 06:44:44;;;;;;;11.80;8.40;;;18.20;99.90;;;;;;480549;247;29365;-76
2023/09/12 06:46:45;;;;;;;9.10;8.03;;;18.20;99.90;;;;;;480568;247;29367;-74
2023/09/12 06:48:52;;;;;;;11.60;8.50;;;18.30;99.90;;;;;;480553;247;29374;-74
2023/09/12 06:50:54;;;;;;;8.63;7.73;;;18.20;99.90;;;;;;480616;247;28860;-75
2023/09/12 06:52:55;;;;;;;13.63;8.30;;;18.30;99.90;;;;;;480586;247;28974;-76
2023/09/12 06:54:59;;;;;;;9.23;8.33;;;18.30;99.90;;;;;;480558;247;29367;-74
2023/09/12 06:57:00;;;;;;;8.90;7.53;;;18.40;99.90;;;;;;480518;247;28925;-75
2023/09/12 06:59:02;;;;;;;10.57;7.63;;;18.50;99.90;;;;;;480560;247;28931;-75
2023/09/12 07:01:03;;;;;;;10.87;8.13;;;18.70;99.90;;;;;;480572;247;29388;-75
2023/09/12 07:05:08;;;;;;;9.13;8.13;;;19.00;99.90;;;;;;480567;247;28842;-74
2023/09/12 07:09:16;;;;;;;12.80;8.07;;;19.40;99.90;;;;;;480561;247;29365;-74
2023/09/12 07:11:24;;;;;;;18.37;8.63;;;19.50;99.90;;;;;;480497;247;29689;-75
2023/09/12 07:13:24;;;;;;;10.93;7.53;;;19.70;99.90;;;;;;480488;247;28837;-74
2023/09/12 07:15:34;;;;;;;9.83;7.57;;;19.90;99.90;;;;;;480511;247;29364;-75
2023/09/12 07:17:35;;;;;;;13.70;7.43;;;19.80;99.90;;;;;;480491;247;28901;-75
2023/09/12 07:19:55;;;;;;;10.07;8.13;;;19.90;99.90;;;;;;480528;247;29305;-74
2023/09/12 07:21:56;;;;;;;8.97;7.13;;;20.00;99.90;;;;;;480584;247;28899;-76
2023/09/12 07:24:05;;;;;;;13.17;8.60;;;20.10;99.90;;;;;;480554;247;29464;-75
2023/09/12 07:26:05;;;;;;;12.53;7.83;;;20.20;99.90;;;;;;480474;247;28852;-75
2023/09/12 07:28:08;;;;;;;10.70;8.03;;;20.20;99.90;;;;;;480579;247;29429;-75
2023/09/12 07:30:09;;;;;;;11.23;8.00;;;20.30;99.90;;;;;;480580;247;28895;-75
2023/09/12 07:32:11;;;;;;;12.47;7.83;;;20.40;99.90;;;;;;480585;247;29269;-74
2023/09/12 07:34:14;;;;;;;11.87;7.70;;;20.30;99.90;;;;;;480526;247;29381;-75
2023/09/12 07:36:15;;;;;;;10.80;8.30;;;20.30;99.90;;;;;;480578;247;28895;-79
2023/09/12 07:38:30;;;;;;;11.37;7.93;;;20.30;99.90;;;;;;480484;247;29343;-75
2023/09/12 07:40:30;;;;;;;10.77;7.40;;;20.30;99.90;;;;;;480380;247;28876;-74
2023/09/12 07:42:31;;;;;;;8.97;7.13;;;20.20;99.90;;;;;;480509;247;30051;-74
2023/09/12 07:44:32;;;;;;;13.50;8.23;;;20.30;99.90;;;;;;480366;247;29339;-75
2023/09/12 07:46:34;;;;;;;12.87;7.97;;;20.30;99.90;;;;;;480586;247;29357;-75
2023/09/12 07:48:35;;;;;;;11.93;7.40;;;20.40;99.90;;;;;;480571;247;28904;-75
2023/09/12 07:50:39;;;;;;;8.20;7.37;;;20.50;99.90;;;;;;480562;247;28896;-75
2023/09/12 07:52:40;;;;;;;9.50;7.20;;;20.50;99.90;;;;;;480536;247;28898;-76
2023/09/12 07:54:48;;;;;;;17.47;8.30;;;20.60;99.90;;;;;;480578;247;29440;-76
2023/09/12 07:56:49;;;;;;;8.63;7.40;;;20.60;99.90;;;;;;480542;247;28928;-76
2023/09/12 07:59:00;;;;;;;8.50;6.83;;;20.70;99.90;;;;;;480561;247;28888;-75
2023/09/12 08:01:01;;;;;;;10.10;7.87;;;20.70;99.90;;;;;;480573;247;28904;-75
2023/09/12 08:03:02;;;;;;;10.47;7.33;;;20.70;99.90;;;;;;480555;247;28895;-73
2023/09/12 08:05:04;;;;;;;12.43;8.43;;;20.90;99.90;;;;;;480597;247;29361;-74
2023/09/12 08:07:14;;;;;;;11.30;7.67;;;20.80;99.90;;;;;;480579;247;29387;-74
2023/09/12 08:09:15;;;;;;;13.60;7.60;;;20.90;99.90;;;;;;480594;247;28848;-76
2023/09/12 08:11:19;;;;;;;14.37;8.30;;;21.00;99.90;;;;;;480550;247;29379;-75
2023/09/12 08:13:21;;;;;;;13.17;7.80;;;21.10;99.90;;;;;;480577;247;29292;-75
2023/09/12 08:15:22;;;;;;;12.17;7.37;;;21.00;99.90;;;;;;480588;247;29453;-74
2023/09/12 08:17:23;;;;;;;11.60;7.63;;;21.00;99.90;;;;;;480558;247;28853;-75
2023/09/12 08:19:25;;;;;;;11.57;7.50;;;21.00;99.90;;;;;;480544;247;28869;-75
2023/09/12 08:21:26;;;;;;;11.17;7.60;;;21.00;99.90;;;;;;480574;247;28963;-76
2023/09/12 08:23:27;;;;;;;9.70;7.93;;;20.90;99.90;;;;;;480588;247;28895;-74
2023/09/12 08:25:35;;;;;;;9.07;7.67;;;20.90;99.90;;;;;;480555;247;29340;-74
2023/09/12 08:27:36;;;;;;;9.80;7.70;;;20.80;99.90;;;;;;480578;247;28890;-74
2023/09/12 08:29:38;;;;;;;12.43;8.70;;;20.90;99.90;;;;;;480595;247;29000;-76
2023/09/12 08:31:50;;;;;;;20.30;10.20;;;20.90;99.90;;;;;;480564;247;29347;-73
2023/09/12 08:33:52;;;;;;;14.03;8.17;;;21.00;99.90;;;;;;487330;243;28732;-75
2023/09/12 08:36:00;;;;;;;10.87;9.20;;;21.20;99.90;;;;;;487351;243;29320;-74
2023/09/12 08:38:01;;;;;;;12.67;9.10;;;21.40;99.90;;;;;;487357;244;28886;-74
2023/09/12 08:40:07;;;;;;;12.77;8.67;;;21.70;99.90;;;;;;487315;244;29236;-75
2023/09/12 08:42:07;;;;;;;9.93;8.73;;;21.80;99.90;;;;;;487210;244;28846;-73
2023/09/12 08:44:10;;;;;;;11.30;8.60;;;22.00;99.90;;;;;;487324;244;28736;-75
2023/09/12 08:46:11;;;;;;;13.57;8.93;;;22.20;99.90;;;;;;487342;244;28745;-75
2023/09/12 08:48:15;;;;;;;17.30;10.27;;;22.40;99.90;;;;;;487343;244;29205;-75
2023/09/12 08:50:17;;;;;;;11.43;8.33;;;22.60;99.90;;;;;;480556;247;29355;-75
2023/09/12 08:52:21;;;;;;;14.90;9.43;;;22.70;99.90;;;;;;480552;247;29327;-75
2023/09/12 08:54:22;;;;;;;10.40;9.30;;;22.80;99.90;;;;;;480652;247;28800;-76
2023/09/12 08:56:33;;;;;;;9.87;8.33;;;22.70;99.90;;;;;;480585;247;29269;-74
2023/09/12 08:58:34;;;;;;;10.90;9.07;;;22.70;99.90;;;;;;480574;247;28838;-76
2023/09/12 09:00:39;;;;;;;11.00;8.47;;;22.70;99.90;;;;;;480574;247;29438;-74
2023/09/12 09:02:40;;;;;;;12.50;9.40;;;22.70;99.90;;;;;;480594;247;28919;-74
2023/09/12 09:04:44;;;;;;;9.97;8.97;;;22.60;99.90;;;;;;480551;247;29372;-74
2023/09/12 09:06:46;;;;;;;11.40;8.83;;;22.60;99.90;;;;;;480609;247;28867;-74
2023/09/12 09:08:47;;;;;;;14.03;9.20;;;22.60;99.90;;;;;;480589;247;29724;-74
2023/09/12 09:10:48;;;;;;;9.90;8.90;;;22.60;99.90;;;;;;480559;247;29332;-75
2023/09/12 09:12:50;;;;;;;12.40;10.10;;;22.60;99.90;;;;;;480542;247;29418;-75
2023/09/12 09:14:52;;;;;;;9.97;9.07;;;22.70;99.90;;;;;;487226;244;28783;-74
2023/09/12 09:16:55;;;;;;;12.93;10.27;;;22.80;99.90;;;;;;487354;244;29270;-75
2023/09/12 09:18:57;;;;;;;11.33;10.10;;;23.00;99.90;;;;;;480611;247;28849;-75
2023/09/12 09:20:58;;;;;;;10.53;9.47;;;23.20;99.90;;;;;;487256;243;28758;-74
2023/09/12 09:23:05;;;;;;;14.93;9.57;;;23.40;99.90;;;;;;487343;244;29237;-74
2023/09/12 09:25:06;;;;;;;13.97;9.50;;;23.50;99.90;;;;;;487319;244;28734;-74
2023/09/12 09:27:11;;;;;;;12.70;9.67;;;23.60;99.90;;;;;;487338;244;29268;-75
2023/09/12 09:29:12;;;;;;;8.97;8.00;;;23.60;99.90;;;;;;487360;244;28792;-74
2023/09/12 09:31:16;;;;;;;12.23;8.80;;;23.70;99.90;;;;;;487311;244;29327;-74
2023/09/12 09:33:18;;;;;;;12.90;10.77;;;23.70;99.90;;;;;;487325;244;28875;-76
2023/09/12 09:35:25;;;;;;;14.17;9.20;;;23.70;99.90;;;;;;480591;247;29393;-77
2023/09/12 09:37:26;;;;;;;15.40;10.47;;;23.70;99.90;;;;;;480607;247;28849;-74
2023/09/12 09:41:32;;;;;;;9.90;8.90;;;23.80;99.90;;;;;;487306;244;28846;-75
2023/09/12 09:43:33;;;;;;;12.23;9.77;;;23.90;99.90;;;;;;487324;244;29140;-73
2023/09/12 09:45:34;;;;;;;20.17;10.73;;;24.00;99.90;;;;;;487337;244;28752;-74
2023/09/12 09:47:44;;;;;;;10.23;9.07;;;24.00;99.90;;;;;;480557;247;29324;-75
2023/09/12 09:49:46;;;;;;;15.87;9.40;;;24.10;99.90;;;;;;480568;247;28880;-75
2023/09/12 09:51:47;;;;;;;11.47;8.20;;;24.10;99.90;;;;;;480567;247;29362;-73
2023/09/12 09:53:48;;;;;;;11.10;8.50;;;24.10;99.90;;;;;;480600;247;29391;-74
2023/09/12 09:55:56;;;;;;;11.67;8.93;;;23.90;99.90;;;;;;480591;247;29496;-74
2023/09/12 09:57:57;;;;;;;10.53;8.53;;;23.90;99.90;;;;;;480567;247;28850;-74
2023/09/12 10:00:11;;;;;;;10.20;9.10;;;23.90;99.90;;;;;;480594;247;29415;-74
2023/09/12 10:02:09;;;;;;;14.50;8.87;;;23.90;99.90;;;;;;480348;247;28856;-74
2023/09/12 10:04:11;;;;;;;8.57;7.77;;;23.80;99.90;;;;;;480585;247;29446;-74
2023/09/12 10:06:12;;;;;;;9.93;8.93;;;23.80;99.90;;;;;;480618;247;28873;-76
2023/09/12 10:08:17;;;;;;;12.00;9.63;;;23.90;99.90;;;;;;480606;247;29354;-76
2023/09/12 10:10:21;;;;;;;13.17;8.60;;;23.90;99.90;;;;;;480355;247;29370;-73
2023/09/12 10:12:22;;;;;;;40.33;10.53;;;23.90;99.90;;;;;;480604;247;28987;-75
2023/09/12 10:14:33;;;;;;;12.43;8.47;;;24.00;99.90;;;;;;487368;243;29177;-75
2023/09/12 10:16:33;;;;;;;10.33;9.13;;;24.00;99.90;;;;;;487195;244;28789;-74
2023/09/12 10:18:38;;;;;;;11.40;8.53;;;23.90;99.90;;;;;;487389;244;29255;-76
2023/09/12 10:20:39;;;;;;;10.13;7.93;;;24.00;99.90;;;;;;487383;244;28725;-75
2023/09/12 10:22:46;;;;;;;9.03;8.13;;;24.00;99.90;;;;;;487347;244;29325;-74
2023/09/12 10:24:47;;;;;;;10.33;8.87;;;24.10;99.90;;;;;;487367;244;28719;-75
2023/09/12 10:28:59;;;;;;;8.67;7.87;;;24.30;99.90;;;;;;487360;244;28829;-75
2023/09/12 10:31:09;;;;;;;11.87;8.47;;;24.20;99.90;;;;;;487320;244;28866;-75
2023/09/12 10:33:10;;;;;;;10.10;9.10;;;24.30;99.90;;;;;;487345;244;28824;-74
2023/09/12 10:35:12;;;;;;;9.80;8.90;;;24.30;99.90;;;;;;487312;244;29214;-74
2023/09/12 10:37:14;;;;;;;8.83;7.70;;;24.20;99.90;;;;;;487347;244;29197;-74
2023/09/12 10:39:15;;;;;;;10.07;8.67;;;24.30;99.90;;;;;;487339;244;28725;-75
2023/09/12 10:41:16;;;;;;;9.50;8.60;;;24.20;99.90;;;;;;487335;244;28785;-74
2023/09/12 10:43:18;;;;;;;8.60;7.80;;;24.10;99.90;;;;;;487216;244;28728;-74
2023/09/12 10:45:25;;;;;;;9.47;7.93;;;24.20;99.90;;;;;;487261;244;28780;-75
2023/09/12 10:47:26;;;;;;;13.40;8.10;;;24.30;99.90;;;;;;487271;244;28771;-74
2023/09/12 10:49:30;;;;;;;8.87;7.97;;;24.30;99.90;;;;;;487240;244;29290;-74
2023/09/12 10:51:32;;;;;;;11.00;8.13;;;24.40;99.90;;;;;;487231;244;28768;-74
2023/09/12 10:53:34;;;;;;;10.23;8.77;;;24.30;99.90;;;;;;487224;244;29221;-77
2023/09/12 10:55:35;;;;;;;12.40;7.70;;;24.40;99.90;;;;;;487274;244;28720;-74